Terminal Aerodrome Forecast
Issued by NWS

Home | Current Version | Previous Version | Text Only | Print | Product List | Glossary On
Versions: 1 2 3 4 5 6 7 8 9 10 11 12 13 14 15 16
000
FTUS44 KLZK 181700
TAFADF
TAF
KADF 181733Z 1818/1918 VRB05KT P6SM VCTS SCT030CB BKN120
     FM182100 09004KT P6SM VCTS BKN040CB
     FM190100 VRB03KT P6SM SCT120 BKN250
     FM190600 VRB03KT 4SM BR SCT010
     FM190800 06003KT 2SM BR OVC003
     FM191500 VRB03KT 5SM BR OVC015=

USA.gov is the U.S. government's official web portal to all federal, state and local government web resources and services.